createdAt,value
2018-04-06T00:00:53.720Z,2.60
2018-04-06T00:03:21.411Z,2.60
2018-04-06T00:05:48.990Z,2.60
2018-04-06T00:08:18.906Z,2.60
2018-04-06T00:10:46.530Z,2.60
2018-04-06T00:13:14.174Z,2.60
2018-04-06T00:15:41.767Z,2.50
2018-04-06T00:18:10.215Z,2.50
2018-04-06T00:20:37.884Z,2.40
2018-04-06T00:23:05.575Z,2.40
2018-04-06T00:25:33.242Z,2.40
2018-04-06T00:28:00.842Z,2.30
2018-04-06T00:30:29.223Z,2.30
2018-04-06T00:32:57.588Z,2.30
2018-04-06T00:35:25.259Z,2.30
2018-04-06T00:37:54.119Z,2.30
2018-04-06T00:40:21.735Z,2.30
2018-04-06T00:42:49.893Z,2.30
2018-04-06T00:45:17.551Z,2.20
2018-04-06T00:47:46.493Z,2.20
2018-04-06T00:50:14.084Z,2.10
2018-04-06T00:52:41.707Z,2.20
2018-04-06T00:55:09.318Z,2.20
2018-04-06T00:57:36.952Z,2.10
2018-04-06T01:00:04.538Z,2.10
2018-04-06T01:02:32.164Z,2.00
2018-04-06T01:05:00.644Z,2.00
2018-04-06T01:07:28.223Z,1.90
2018-04-06T01:09:55.786Z,1.90
2018-04-06T01:12:23.472Z,1.70
2018-04-06T01:14:52.171Z,1.60
2018-04-06T01:17:20.623Z,1.50
2018-04-06T01:19:48.217Z,1.40
2018-04-06T01:22:15.816Z,1.40
2018-04-06T01:24:43.375Z,1.50
2018-04-06T01:27:10.988Z,1.40
2018-04-06T01:29:39.139Z,1.40
2018-04-06T01:32:06.734Z,1.40
2018-04-06T01:34:35.099Z,1.50
2018-04-06T01:37:02.780Z,1.40
2018-04-06T01:39:30.351Z,1.50
2018-04-06T01:41:57.964Z,1.50
2018-04-06T01:44:25.543Z,1.50
2018-04-06T01:46:53.211Z,1.50
2018-04-06T01:49:20.870Z,1.40
2018-04-06T01:51:49.706Z,1.30
2018-04-06T01:54:17.300Z,1.20
2018-04-06T01:56:44.916Z,1.30
2018-04-06T01:59:12.520Z,1.30
2018-04-06T02:01:40.130Z,1.40
2018-04-06T02:04:07.734Z,1.40
2018-04-06T02:06:36.108Z,1.40
2018-04-06T02:09:03.713Z,1.40
2018-04-06T02:11:31.324Z,1.40
2018-04-06T02:13:58.907Z,1.40
2018-04-06T02:16:26.566Z,1.40
2018-04-06T02:18:54.235Z,1.30
2018-04-06T02:21:21.835Z,1.30
2018-04-06T02:23:49.469Z,1.30
2018-04-06T02:26:17.136Z,1.30
2018-04-06T02:28:44.787Z,1.20
2018-04-06T02:31:13.215Z,1.30
2018-04-06T02:33:40.927Z,1.20
2018-04-06T02:36:09.579Z,1.20
2018-04-06T02:38:37.281Z,1.20
2018-04-06T02:41:04.908Z,1.20
2018-04-06T02:43:32.513Z,1.10
2018-04-06T02:46:00.133Z,1.10
2018-04-06T02:48:29.346Z,1.10
2018-04-06T02:50:57.008Z,1.10
2018-04-06T02:53:24.722Z,1.10
2018-04-06T02:55:53.034Z,1.10
2018-04-06T02:58:20.695Z,1.10
2018-04-06T03:00:48.275Z,1.10
2018-04-06T03:03:15.973Z,1.00
2018-04-06T03:05:43.551Z,1.00
2018-04-06T03:08:14.106Z,1.00
2018-04-06T03:10:41.727Z,1.00
2018-04-06T03:13:09.344Z,0.90
2018-04-06T03:15:36.983Z,0.90
2018-04-06T03:18:04.648Z,1.00
2018-04-06T03:20:32.359Z,1.00
2018-04-06T03:23:00.019Z,1.00
2018-04-06T03:25:27.590Z,0.90
2018-04-06T03:27:55.191Z,0.90
2018-04-06T03:30:22.784Z,0.90
2018-04-06T03:32:51.319Z,0.80
2018-04-06T03:35:18.911Z,0.70
2018-04-06T03:37:46.501Z,0.80
2018-04-06T03:40:14.127Z,0.80
2018-04-06T03:42:41.727Z,0.80
2018-04-06T03:45:09.331Z,0.70
2018-04-06T03:47:38.137Z,0.70
2018-04-06T03:50:05.747Z,0.70
2018-04-06T03:52:33.879Z,0.60
2018-04-06T03:55:02.971Z,0.60
2018-04-06T03:57:30.927Z,0.60
2018-04-06T03:59:58.521Z,0.60
2018-04-06T04:02:26.614Z,0.60
2018-04-06T04:04:54.284Z,0.60
2018-04-06T04:07:21.882Z,0.60
2018-04-06T04:09:49.516Z,0.50
2018-04-06T04:12:17.085Z,0.50
2018-04-06T04:14:46.729Z,0.40
2018-04-06T04:17:15.087Z,0.40
2018-04-06T04:19:42.708Z,0.40
2018-04-06T04:22:10.865Z,0.40
2018-04-06T04:24:39.506Z,0.40
2018-04-06T04:27:07.156Z,0.30
2018-04-06T04:29:34.762Z,0.30
2018-04-06T04:32:03.186Z,0.40
2018-04-06T04:34:30.892Z,0.30
2018-04-06T04:36:58.485Z,0.30
2018-04-06T04:39:26.330Z,0.30
2018-04-06T04:41:54.851Z,0.30
2018-04-06T04:44:23.329Z,0.30
2018-04-06T04:46:50.940Z,0.30
2018-04-06T04:49:19.314Z,0.30
2018-04-06T04:51:47.046Z,0.20
2018-04-06T04:54:14.729Z,0.30
2018-04-06T04:56:42.375Z,0.30
2018-04-06T04:59:10.746Z,0.20
2018-04-06T05:01:39.511Z,0.20
2018-04-06T05:04:07.123Z,0.10
2018-04-06T05:06:35.560Z,0.20
2018-04-06T05:09:03.183Z,0.10
2018-04-06T05:11:31.648Z,0.10
2018-04-06T05:13:59.215Z,0.10
2018-04-06T05:16:26.860Z,0.10
2018-04-06T05:18:54.441Z,0.10
2018-04-06T05:21:22.118Z,0.10
2018-04-06T05:23:49.723Z,0.20
2018-04-06T05:26:17.384Z,0.20
2018-04-06T05:28:45.038Z,0.20
2018-04-06T05:31:12.726Z,0.20
2018-04-06T05:33:40.373Z,0.10
2018-04-06T05:36:08.020Z,0.20
2018-04-06T05:38:36.480Z,0.20
2018-04-06T05:41:04.854Z,0.20
2018-04-06T05:43:32.446Z,0.20
2018-04-06T05:46:00.871Z,0.30
2018-04-06T05:48:29.196Z,0.30
2018-04-06T05:50:56.835Z,0.20
2018-04-06T05:53:25.272Z,0.30
2018-04-06T05:55:52.883Z,0.30
2018-04-06T05:58:21.321Z,0.40
2018-04-06T06:00:48.932Z,0.40
2018-04-06T06:03:16.521Z,0.50
2018-04-06T06:05:44.947Z,0.50
2018-04-06T06:08:12.553Z,0.50
2018-04-06T06:10:40.192Z,0.50
2018-04-06T06:13:07.812Z,0.60
2018-04-06T06:15:35.449Z,0.50
2018-04-06T06:18:03.007Z,0.60
2018-04-06T06:20:30.720Z,0.60
2018-04-06T06:22:58.341Z,0.60
2018-04-06T06:25:26.737Z,0.70
2018-04-06T06:27:54.450Z,0.60
2018-04-06T06:30:23.020Z,0.70
2018-04-06T06:32:50.606Z,0.70
2018-04-06T06:35:18.877Z,0.70
2018-04-06T06:37:46.468Z,0.80
2018-04-06T06:40:14.063Z,0.80
2018-04-06T06:42:41.669Z,0.90
2018-04-06T06:45:10.579Z,1.10
2018-04-06T06:47:38.977Z,1.10
2018-04-06T06:50:07.332Z,1.20
2018-04-06T06:52:34.981Z,1.10
2018-04-06T06:55:02.607Z,1.20
2018-04-06T06:57:30.959Z,1.30
2018-04-06T06:59:58.580Z,1.30
2018-04-06T07:02:26.230Z,1.40
2018-04-06T07:04:53.835Z,1.40
2018-04-06T07:07:21.477Z,1.50
2018-04-06T07:09:49.084Z,1.60
2018-04-06T07:12:16.693Z,1.70
2018-04-06T07:14:45.125Z,1.80
2018-04-06T07:17:12.750Z,1.80
2018-04-06T07:19:40.399Z,1.90
2018-04-06T07:22:08.018Z,1.90
2018-04-06T07:24:35.699Z,2.00
2018-04-06T07:27:04.251Z,2.10
2018-04-06T07:29:32.878Z,2.10
2018-04-06T07:32:00.452Z,2.20
2018-04-06T07:34:28.082Z,2.30
2018-04-06T07:36:55.702Z,2.30
2018-04-06T07:39:23.300Z,2.40
2018-04-06T07:41:51.801Z,2.50
2018-04-06T07:44:20.227Z,2.60
2018-04-06T07:46:48.531Z,2.70
2018-04-06T07:49:16.193Z,2.60
2018-04-06T07:51:43.939Z,2.70
2018-04-06T07:54:12.192Z,2.80
2018-04-06T07:56:40.689Z,3.00
2018-04-06T07:59:08.385Z,2.90
2018-04-06T08:01:36.817Z,3.10
2018-04-06T08:04:06.247Z,3.20
2018-04-06T08:06:33.915Z,3.30
2018-04-06T08:09:01.510Z,3.40
2018-04-06T08:11:29.892Z,3.50
2018-04-06T08:14:25.239Z,3.60
2018-04-06T08:16:55.716Z,3.70
2018-04-06T08:19:25.292Z,3.70
2018-04-06T08:21:54.373Z,3.80
2018-04-06T08:24:22.556Z,3.90
2018-04-06T08:26:50.179Z,4.00
2018-04-06T08:29:17.831Z,4.10
2018-04-06T08:31:45.483Z,4.20
2018-04-06T08:34:13.178Z,4.30
2018-04-06T08:36:40.778Z,4.40
2018-04-06T08:39:08.413Z,4.40
2018-04-06T08:41:36.043Z,4.50
2018-04-06T08:44:05.102Z,4.80
2018-04-06T08:46:32.735Z,4.70
2018-04-06T08:49:03.189Z,4.90
2018-04-06T08:51:33.282Z,5.20
2018-04-06T08:54:01.598Z,5.10
2018-04-06T08:56:30.435Z,5.20
2018-04-06T08:58:58.244Z,5.40
2018-04-06T09:01:26.752Z,5.60
2018-04-06T09:03:55.261Z,5.70
2018-04-06T09:06:22.929Z,5.60
2018-04-06T09:08:50.811Z,5.80
2018-04-06T09:11:18.610Z,6.00
2018-04-06T09:13:46.438Z,6.10
2018-04-06T09:16:15.195Z,6.20
2018-04-06T09:18:42.884Z,6.30
2018-04-06T09:21:10.704Z,6.40
2018-04-06T09:23:38.333Z,6.50
2018-04-06T09:26:08.341Z,6.80
2018-04-06T09:28:35.948Z,6.70
2018-04-06T09:31:04.409Z,7.10
2018-04-06T09:33:33.038Z,7.00
2018-04-06T09:36:00.794Z,7.20
2018-04-06T09:38:28.482Z,7.30
2018-04-06T09:40:56.123Z,7.40
2018-04-06T09:43:23.774Z,7.60
2018-04-06T09:45:53.238Z,7.70
2018-04-06T09:48:23.484Z,7.90
2018-04-06T09:50:54.199Z,8.00
2018-04-06T09:53:22.727Z,8.00
2018-04-06T09:55:54.972Z,8.20
2018-04-06T09:58:26.332Z,8.20
2018-04-06T10:01:01.150Z,8.40
2018-04-06T10:03:32.944Z,8.60
2018-04-06T10:06:00.644Z,8.70
2018-04-06T10:08:28.235Z,8.80
2018-04-06T10:10:55.880Z,8.90
2018-04-06T10:13:23.547Z,9.10
2018-04-06T10:15:51.192Z,9.20
2018-04-06T10:18:19.606Z,9.50
2018-04-06T10:20:47.330Z,9.40
2018-04-06T10:23:15.572Z,9.60
2018-04-06T10:25:43.284Z,9.70
2018-04-06T10:28:11.343Z,9.80
2018-04-06T10:30:41.249Z,9.90
2018-04-06T10:33:08.921Z,10.10
2018-04-06T10:35:36.581Z,10.20
2018-04-06T10:38:06.671Z,10.50
2018-04-06T10:40:35.670Z,10.40
2018-04-06T10:43:03.326Z,10.60
2018-04-06T10:45:30.949Z,10.80
2018-04-06T10:48:00.312Z,11.10
2018-04-06T10:50:28.006Z,11.00
2018-04-06T10:52:55.753Z,11.20
2018-04-06T10:55:24.256Z,11.30
2018-04-06T10:57:52.712Z,11.50
2018-04-06T11:00:21.357Z,11.40
2018-04-06T11:02:50.716Z,11.60
2018-04-06T11:05:18.556Z,11.70
2018-04-06T11:07:47.467Z,11.90
2018-04-06T11:10:16.260Z,11.80
2018-04-06T11:12:49.334Z,12.00
2018-04-06T11:15:18.937Z,12.20
2018-04-06T11:17:47.721Z,12.10
2018-04-06T11:20:16.848Z,12.30
2018-04-06T11:22:46.374Z,12.50
2018-04-06T11:25:15.584Z,12.40
2018-04-06T11:27:45.310Z,12.50
2018-04-06T11:30:13.696Z,12.60
2018-04-06T11:32:43.279Z,12.90
2018-04-06T11:35:11.799Z,13.00
2018-04-06T11:37:42.298Z,12.90
2018-04-06T11:40:10.013Z,13.10
2018-04-06T11:42:37.677Z,13.20
2018-04-06T11:45:05.312Z,13.30
2018-04-06T11:47:33.711Z,13.40
2018-04-06T11:50:01.487Z,13.40
2018-04-06T11:52:29.112Z,13.40
2018-04-06T11:54:56.750Z,13.50
2018-04-06T11:59:58.852Z,13.60
2018-04-06T12:02:26.572Z,13.70
2018-04-06T12:04:54.321Z,13.90
2018-04-06T12:07:21.989Z,14.10
2018-04-06T12:09:49.612Z,14.20
2018-04-06T12:12:17.262Z,14.30
2018-04-06T12:14:44.835Z,14.30
2018-04-06T12:17:12.469Z,14.30
2018-04-06T12:19:40.080Z,14.40
2018-04-06T12:22:07.680Z,14.40
2018-04-06T12:24:36.075Z,14.50
2018-04-06T12:27:04.499Z,14.60
2018-04-06T12:29:32.137Z,14.50
2018-04-06T12:32:00.529Z,14.70
2018-04-06T12:34:28.891Z,14.80
2018-04-06T12:36:56.458Z,14.70
2018-04-06T12:39:24.120Z,14.80
2018-04-06T12:41:51.731Z,15.00
2018-04-06T12:44:19.350Z,15.10
2018-04-06T12:46:47.007Z,15.20
2018-04-06T12:49:14.631Z,15.30
2018-04-06T12:51:43.038Z,15.30
2018-04-06T12:54:10.694Z,15.30
2018-04-06T12:56:38.608Z,15.30
2018-04-06T12:59:06.985Z,15.40
2018-04-06T13:01:34.622Z,15.30
2018-04-06T13:04:02.223Z,15.50
2018-04-06T13:06:30.623Z,15.50
2018-04-06T13:08:58.217Z,15.40
2018-04-06T13:11:25.833Z,15.60
2018-04-06T13:13:53.461Z,15.70
2018-04-06T13:16:21.030Z,15.70
2018-04-06T13:18:49.411Z,15.90
2018-04-06T13:21:16.986Z,15.90
2018-04-06T13:23:44.569Z,15.90
2018-04-06T13:26:12.926Z,16.00
2018-04-06T13:28:40.548Z,15.90
2018-04-06T13:31:08.347Z,16.00
2018-04-06T13:33:36.570Z,16.20
2018-04-06T13:36:04.141Z,16.30
2018-04-06T13:38:31.814Z,16.40
2018-04-06T13:40:59.470Z,16.40
2018-04-06T13:43:27.105Z,16.50
2018-04-06T13:45:55.491Z,16.60
2018-04-06T13:48:23.299Z,16.50
2018-04-06T13:50:50.912Z,16.60
2018-04-06T13:53:18.493Z,16.60
2018-04-06T13:55:46.123Z,16.60
2018-04-06T13:58:13.726Z,16.70
2018-04-06T14:00:41.403Z,16.80
2018-04-06T14:03:09.034Z,17.00
2018-04-06T14:05:36.710Z,17.00
2018-04-06T14:08:04.315Z,17.00
2018-04-06T14:10:31.927Z,17.00
2018-04-06T14:13:00.425Z,17.00
2018-04-06T14:15:29.070Z,17.10
2018-04-06T14:17:57.506Z,17.10
2018-04-06T14:20:25.947Z,17.10
2018-04-06T14:22:53.546Z,17.10
2018-04-06T14:25:21.199Z,17.30
2018-04-06T14:27:48.842Z,17.30
2018-04-06T14:30:16.508Z,17.30
2018-04-06T14:32:44.099Z,17.30
2018-04-06T14:35:12.089Z,17.20
2018-04-06T14:37:39.783Z,17.10
2018-04-06T14:40:07.391Z,17.10
2018-04-06T14:42:35.736Z,17.20
2018-04-06T14:45:04.302Z,17.10
2018-04-06T14:47:31.912Z,17.20
2018-04-06T14:49:59.640Z,17.30
2018-04-06T14:52:27.257Z,17.40
2018-04-06T14:54:54.854Z,17.50
2018-04-06T14:57:22.483Z,17.50
2018-04-06T14:59:50.176Z,17.50
2018-04-06T15:02:17.766Z,17.60
2018-04-06T15:04:46.369Z,17.70
2018-04-06T15:07:14.623Z,17.70
2018-04-06T15:09:42.537Z,17.80
2018-04-06T15:12:10.574Z,17.80
2018-04-06T15:14:38.363Z,17.90
2018-04-06T15:17:05.979Z,18.10
2018-04-06T15:19:34.400Z,18.20
2018-04-06T15:22:03.041Z,18.20
2018-04-06T15:24:30.775Z,18.30
2018-04-06T15:26:58.351Z,18.20
2018-04-06T15:29:26.046Z,18.20
2018-04-06T15:31:53.759Z,18.20
2018-04-06T15:34:22.305Z,18.20
2018-04-06T15:36:54.523Z,18.20
2018-04-06T15:39:22.201Z,18.10
2018-04-06T15:41:49.822Z,18.20
2018-04-06T15:44:17.474Z,18.10
2018-04-06T15:46:45.052Z,18.00
2018-04-06T15:49:12.652Z,18.10
2018-04-06T15:51:40.300Z,18.10
2018-04-06T15:54:07.907Z,18.10
2018-04-06T15:56:40.952Z,18.20
2018-04-06T15:59:08.627Z,18.20
2018-04-06T16:01:37.484Z,18.20
2018-04-06T16:04:05.147Z,18.10
2018-04-06T16:06:33.229Z,18.00
2018-04-06T16:09:00.972Z,18.00
2018-04-06T16:11:28.655Z,18.00
2018-04-06T16:13:56.255Z,18.10
2018-04-06T16:16:24.696Z,18.00
2018-04-06T16:18:53.058Z,17.90
2018-04-06T16:21:23.351Z,18.00
2018-04-06T16:23:51.158Z,18.00
2018-04-06T16:26:19.231Z,17.90
2018-04-06T16:28:47.607Z,17.80
2018-04-06T16:31:17.105Z,17.60
2018-04-06T16:33:44.792Z,17.50
2018-04-06T16:36:18.361Z,17.40
2018-04-06T16:38:50.997Z,17.10
2018-04-06T16:41:19.618Z,17.20
2018-04-06T16:43:50.244Z,17.20
2018-04-06T16:46:18.496Z,17.10
2018-04-06T16:48:46.910Z,17.20
2018-04-06T16:51:14.656Z,17.20
2018-04-06T16:53:43.118Z,17.30
2018-04-06T16:56:11.599Z,17.30
2018-04-06T16:58:39.642Z,17.20
2018-04-06T17:01:08.528Z,17.30
2018-04-06T17:03:36.924Z,17.30
2018-04-06T17:06:04.686Z,17.20
2018-04-06T17:08:32.388Z,17.20
2018-04-06T17:11:02.444Z,17.10
2018-04-06T17:13:33.534Z,17.10
2018-04-06T17:16:01.288Z,17.00
2018-04-06T17:18:29.730Z,16.90
2018-04-06T17:20:57.843Z,16.80
2018-04-06T17:23:25.576Z,16.70
2018-04-06T17:25:54.929Z,16.60
2018-04-06T17:28:22.522Z,16.60
2018-04-06T17:30:50.680Z,16.60
2018-04-06T17:33:19.202Z,16.50
2018-04-06T17:35:46.808Z,16.40
2018-04-06T17:38:15.920Z,15.90
2018-04-06T17:40:44.279Z,15.80
2018-04-06T17:43:12.604Z,15.70
2018-04-06T17:45:43.355Z,15.60
2018-04-06T17:48:11.876Z,15.40
2018-04-06T17:50:39.480Z,15.10
2018-04-06T17:53:07.080Z,15.00
2018-04-06T17:55:35.534Z,14.70
2018-04-06T17:58:03.175Z,14.60
2018-04-06T18:00:30.891Z,14.50
2018-04-06T18:02:58.486Z,14.40
2018-04-06T18:05:26.121Z,14.30
2018-04-06T18:07:53.732Z,14.20
2018-04-06T18:10:21.370Z,14.10
2018-04-06T18:12:49.798Z,13.80
2018-04-06T18:15:17.368Z,13.70
2018-04-06T18:17:45.044Z,13.70
2018-04-06T18:20:13.507Z,13.50
2018-04-06T18:22:42.161Z,13.40
2018-04-06T18:25:10.647Z,13.40
2018-04-06T18:27:39.881Z,13.30
2018-04-06T18:30:07.655Z,13.20
2018-04-06T18:32:35.513Z,13.20
2018-04-06T18:35:03.253Z,13.10
2018-04-06T18:37:31.048Z,13.10
2018-04-06T18:39:59.731Z,12.90
2018-04-06T18:42:27.414Z,12.80
2018-04-06T18:44:56.196Z,12.70
2018-04-06T18:47:24.271Z,12.70
2018-04-06T18:49:51.987Z,12.60
2018-04-06T18:52:20.487Z,12.50
2018-04-06T18:54:48.846Z,12.40
2018-04-06T18:57:17.016Z,12.40
2018-04-06T18:59:45.505Z,12.40
2018-04-06T19:02:13.112Z,12.30
2018-04-06T19:04:40.852Z,12.20
2018-04-06T19:07:08.464Z,12.30
2018-04-06T19:09:36.855Z,12.10
2018-04-06T19:12:04.614Z,12.10
2018-04-06T19:14:32.266Z,12.10
2018-04-06T19:16:59.930Z,12.00
2018-04-06T19:19:27.508Z,11.90
2018-04-06T19:21:55.135Z,11.90
2018-04-06T19:24:22.707Z,11.90
2018-04-06T19:26:51.124Z,11.80
2018-04-06T19:29:18.712Z,11.70
2018-04-06T19:31:46.377Z,11.70
2018-04-06T19:34:13.974Z,11.60
2018-04-06T19:36:41.608Z,11.60
2018-04-06T19:39:09.222Z,11.50
2018-04-06T19:41:36.852Z,11.40
2018-04-06T19:44:05.353Z,11.40
2018-04-06T19:46:33.744Z,11.30
2018-04-06T19:49:02.326Z,11.30
2018-04-06T19:51:30.769Z,11.20
2018-04-06T19:53:58.405Z,11.10
2018-04-06T19:56:26.080Z,11.10
2018-04-06T19:58:53.743Z,11.10
2018-04-06T20:01:22.107Z,10.90
2018-04-06T20:03:49.676Z,10.90
2018-04-06T20:06:17.257Z,10.90
2018-04-06T20:08:44.899Z,10.90
2018-04-06T20:11:12.499Z,10.80
2018-04-06T20:13:40.083Z,10.80
2018-04-06T20:16:08.520Z,10.70
2018-04-06T20:18:37.268Z,10.60
2018-04-06T20:21:04.974Z,10.60
2018-04-06T20:23:33.433Z,10.50
2018-04-06T20:26:01.534Z,10.50
2018-04-06T20:28:29.175Z,10.50
2018-04-06T20:30:57.992Z,10.50
2018-04-06T20:33:25.818Z,10.50
2018-04-06T20:35:53.774Z,10.40
2018-04-06T20:38:22.288Z,10.40
2018-04-06T20:40:49.932Z,10.40
2018-04-06T20:43:17.609Z,10.40
2018-04-06T20:45:45.988Z,10.30
2018-04-06T20:48:13.710Z,10.20
2018-04-06T20:50:41.318Z,10.20
2018-04-06T20:53:09.012Z,10.20
2018-04-06T20:55:36.791Z,10.20
2018-04-06T20:58:04.594Z,10.10
2018-04-06T21:00:33.024Z,10.10
2018-04-06T21:03:00.889Z,10.10
2018-04-06T21:05:28.659Z,10.10
2018-04-06T21:07:56.516Z,10.00
2018-04-06T21:10:25.302Z,10.00
2018-04-06T21:12:53.787Z,9.90
2018-04-06T21:15:21.530Z,9.90
2018-04-06T21:17:49.234Z,9.90
2018-04-06T21:20:16.874Z,9.90
2018-04-06T21:22:44.550Z,9.90
2018-04-06T21:25:12.263Z,9.90
2018-04-06T21:27:41.888Z,9.80
2018-04-06T21:30:09.521Z,9.70
2018-04-06T21:32:37.201Z,9.80
2018-04-06T21:35:04.844Z,9.70
2018-04-06T21:37:32.470Z,9.70
2018-04-06T21:40:00.105Z,9.70
2018-04-06T21:42:27.809Z,9.60
2018-04-06T21:44:55.503Z,9.50
2018-04-06T21:47:23.945Z,9.40
2018-04-06T21:49:51.594Z,9.30
2018-04-06T21:52:20.010Z,9.30
2018-04-06T21:54:48.303Z,9.20
2018-04-06T21:57:16.077Z,9.30
2018-04-06T21:59:43.664Z,9.20
2018-04-06T22:02:11.463Z,9.20
2018-04-06T22:04:39.496Z,9.10
2018-04-06T22:07:07.177Z,9.00
2018-04-06T22:09:34.766Z,8.90
2018-04-06T22:12:02.447Z,8.90
2018-04-06T22:14:30.170Z,8.90
2018-04-06T22:16:58.548Z,8.80
2018-04-06T22:19:26.217Z,8.70
2018-04-06T22:21:53.816Z,8.80
2018-04-06T22:24:22.195Z,8.70
2018-04-06T22:26:50.578Z,8.60
2018-04-06T22:29:18.962Z,8.60
2018-04-06T22:31:47.815Z,8.50
2018-04-06T22:34:17.611Z,8.50
2018-04-06T22:36:45.765Z,8.40
2018-04-06T22:39:13.951Z,8.40
2018-04-06T22:41:42.230Z,8.40
2018-04-06T22:44:10.261Z,8.30
2018-04-06T22:46:39.100Z,8.30
2018-04-06T22:49:07.267Z,8.30
2018-04-06T22:51:36.201Z,8.20
2018-04-06T22:54:05.283Z,8.10
2018-04-06T22:56:33.408Z,8.10
2018-04-06T22:59:01.892Z,8.10
2018-04-06T23:01:30.016Z,8.10
2018-04-06T23:03:58.483Z,8.00
2018-04-06T23:06:27.400Z,8.00
2018-04-06T23:08:56.292Z,7.90
2018-04-06T23:11:24.492Z,7.90
2018-04-06T23:13:52.176Z,7.90
2018-04-06T23:16:21.299Z,7.90
2018-04-06T23:18:50.433Z,7.90
2018-04-06T23:21:18.709Z,7.90
2018-04-06T23:23:47.632Z,7.80
2018-04-06T23:26:15.761Z,7.70
2018-04-06T23:28:45.345Z,7.80
2018-04-06T23:31:14.331Z,7.70
2018-04-06T23:33:43.185Z,7.60
2018-04-06T23:36:11.575Z,7.60
2018-04-06T23:38:39.814Z,7.50
2018-04-06T23:41:08.385Z,7.50
2018-04-06T23:43:37.251Z,7.40
2018-04-06T23:46:05.328Z,7.40
2018-04-06T23:48:34.649Z,7.30
2018-04-06T23:51:03.581Z,7.20
2018-04-06T23:53:32.596Z,7.20
2018-04-06T23:56:01.934Z,7.20
2018-04-06T23:58:30.118Z,7.10
